createdAt,value
2022-08-27T00:01:20.982Z,94466.19
2022-08-27T00:03:48.025Z,94468.38
2022-08-27T00:06:16.963Z,94478.78
2022-08-27T00:08:45.863Z,94475.53
2022-08-27T00:11:15.523Z,94448.09
2022-08-27T00:13:42.517Z,94486.72
2022-08-27T00:16:11.775Z,94473.44
2022-08-27T00:18:40.403Z,94452.63
2022-08-27T00:21:07.959Z,94464.94
2022-08-27T00:23:36.555Z,94481.09
2022-08-27T00:26:04.499Z,94451.59
2022-08-27T00:28:32.257Z,94477.00
2022-08-27T00:30:59.473Z,94492.78
2022-08-27T00:33:28.189Z,94482.91
2022-08-27T00:35:55.619Z,94484.22
2022-08-27T00:38:23.885Z,94457.88
2022-08-27T00:40:51.843Z,94483.28
2022-08-27T00:43:24.594Z,94462.31
2022-08-27T00:45:55.824Z,94463.66
2022-08-27T00:48:26.953Z,94459.16
2022-08-27T00:50:55.718Z,94467.25
2022-08-27T00:53:26.037Z,94483.31
2022-08-27T00:55:58.010Z,94483.31
2022-08-27T00:58:37.192Z,94482.03
2022-08-27T01:01:07.215Z,94465.28
2022-08-27T01:03:34.899Z,94447.69
2022-08-27T01:06:05.124Z,94469.94
2022-08-27T01:08:36.189Z,94464.63
2022-08-27T01:11:06.288Z,94462.41
2022-08-27T01:13:58.711Z,94484.75
2022-08-27T01:16:26.336Z,94464.50
2022-08-27T01:18:56.198Z,94474.38
2022-08-27T01:21:49.726Z,94474.69
2022-08-27T01:24:27.730Z,94479.69
2022-08-27T01:26:55.097Z,94464.75
2022-08-27T01:29:21.867Z,94466.16
2022-08-27T01:31:49.009Z,94455.59
2022-08-27T01:34:16.022Z,94462.75
2022-08-27T01:36:42.807Z,94491.69
2022-08-27T01:39:09.662Z,94469.84
2022-08-27T01:41:39.742Z,94478.00
2022-08-27T01:44:06.566Z,94416.56
2022-08-27T01:46:33.476Z,94443.09
2022-08-27T01:49:00.293Z,94465.72
2022-08-27T01:51:27.376Z,94462.25
2022-08-27T01:53:54.403Z,94443.31
2022-08-27T01:56:21.250Z,94474.91
2022-08-27T01:58:48.028Z,94478.69
2022-08-27T02:01:18.484Z,94475.81
2022-08-27T02:03:47.383Z,94450.63
2022-08-27T02:06:15.014Z,94452.91
2022-08-27T02:08:41.842Z,94469.41
2022-08-27T02:11:09.354Z,94466.88
2022-08-27T02:13:37.114Z,94475.28
2022-08-27T02:16:04.134Z,94445.59
2022-08-27T02:18:31.089Z,94472.38
2022-08-27T02:20:57.981Z,94462.72
2022-08-27T02:23:24.938Z,94421.88
2022-08-27T02:25:51.783Z,94470.56
2022-08-27T02:28:19.482Z,94478.66
2022-08-27T02:30:46.279Z,94472.41
2022-08-27T02:33:13.678Z,94480.03
2022-08-27T02:35:43.892Z,94475.91
2022-08-27T02:38:13.023Z,94427.84
2022-08-27T02:40:40.174Z,94474.19
2022-08-27T02:43:07.953Z,94462.47
2022-08-27T02:45:36.637Z,94461.25
2022-08-27T02:48:05.791Z,94455.91
2022-08-27T02:50:32.642Z,94459.53
2022-08-27T02:53:02.349Z,94456.75
2022-08-27T02:55:29.846Z,94457.94
2022-08-27T02:57:56.990Z,94475.19
2022-08-27T03:00:25.947Z,94455.66
2022-08-27T03:02:52.904Z,94447.50
2022-08-27T03:05:22.261Z,94439.56
2022-08-27T03:07:52.030Z,94434.25
2022-08-27T03:10:20.253Z,94430.28
2022-08-27T03:12:47.062Z,94442.03
2022-08-27T03:15:17.332Z,94430.19
2022-08-27T03:18:03.108Z,94448.09
2022-08-27T03:20:30.840Z,94421.75
2022-08-27T03:22:57.838Z,94411.22
2022-08-27T03:25:25.162Z,94453.34
2022-08-27T03:27:52.448Z,94453.25
2022-08-27T03:30:21.882Z,94430.34
2022-08-27T03:32:48.802Z,94448.25
2022-08-27T03:35:16.682Z,94432.41
2022-08-27T03:37:43.771Z,94439.31
2022-08-27T03:40:11.134Z,94430.47
2022-08-27T03:42:41.677Z,94436.06
2022-08-27T03:45:09.564Z,94453.38
2022-08-27T03:47:37.006Z,94431.78
2022-08-27T03:50:04.894Z,94451.75
2022-08-27T03:52:33.662Z,94443.69
2022-08-27T03:55:01.651Z,94398.28
2022-08-27T03:57:28.627Z,94427.66
2022-08-27T03:59:57.175Z,94446.22
2022-08-27T04:02:24.337Z,94443.78
2022-08-27T04:04:51.129Z,94434.25
2022-08-27T04:07:17.998Z,94448.34
2022-08-27T04:09:45.007Z,94431.03
2022-08-27T04:12:11.827Z,94449.72
2022-08-27T04:14:39.109Z,94443.34
2022-08-27T04:17:06.530Z,94446.31
2022-08-27T04:19:34.195Z,94452.28
2022-08-27T04:22:05.633Z,94449.28
2022-08-27T04:24:34.649Z,94452.75
2022-08-27T04:27:02.314Z,94456.44
2022-08-27T04:29:29.095Z,94461.75
2022-08-27T04:31:56.393Z,94474.25
2022-08-27T04:34:23.718Z,94482.44
2022-08-27T04:36:50.792Z,94476.44
2022-08-27T04:39:17.646Z,94475.78
2022-08-27T04:41:44.446Z,94478.19
2022-08-27T04:44:11.522Z,94475.13
2022-08-27T04:46:40.774Z,94474.97
2022-08-27T04:49:12.701Z,94460.31
2022-08-27T04:51:43.003Z,94469.81
2022-08-27T04:54:10.966Z,94473.88
2022-08-27T04:56:38.653Z,94469.16
2022-08-27T04:59:08.923Z,94474.34
2022-08-27T05:01:37.655Z,94477.84
2022-08-27T05:04:04.990Z,94475.13
2022-08-27T05:06:33.206Z,94477.78
2022-08-27T05:08:59.978Z,94472.88
2022-08-27T05:11:32.222Z,94445.44
2022-08-27T05:13:59.467Z,94468.59
2022-08-27T05:16:26.309Z,94476.59
2022-08-27T05:18:53.621Z,94472.25
2022-08-27T05:21:22.328Z,94470.59
2022-08-27T05:23:50.096Z,94471.13
2022-08-27T05:26:17.232Z,94463.06
2022-08-27T05:28:44.403Z,94468.22
2022-08-27T05:31:12.761Z,94464.19
2022-08-27T05:33:40.731Z,94472.56
2022-08-27T05:36:14.558Z,94459.69
2022-08-27T05:38:42.585Z,94463.34
2022-08-27T05:41:14.299Z,94470.66
2022-08-27T05:43:45.386Z,94463.63
2022-08-27T05:46:17.800Z,94459.97
2022-08-27T05:48:44.842Z,94465.31
2022-08-27T05:51:25.867Z,94481.97
2022-08-27T05:54:05.582Z,94473.59
2022-08-27T05:56:36.881Z,94469.59
2022-08-27T05:59:23.288Z,94471.06
2022-08-27T06:01:52.629Z,94477.22
2022-08-27T06:04:21.241Z,94483.63
2022-08-27T06:06:48.818Z,94470.16
2022-08-27T06:09:22.855Z,94467.03
2022-08-27T06:11:50.154Z,94476.47
2022-08-27T06:14:17.106Z,94484.16
2022-08-27T06:16:44.597Z,94479.75
2022-08-27T06:19:12.261Z,94475.41
2022-08-27T06:21:40.454Z,94477.66
2022-08-27T06:24:08.087Z,94489.66
2022-08-27T06:26:35.501Z,94487.78
2022-08-27T06:29:05.328Z,94460.03
2022-08-27T06:31:32.908Z,94465.88
2022-08-27T06:34:07.220Z,94467.97
2022-08-27T06:36:38.100Z,94492.00
2022-08-27T06:39:06.181Z,94482.06
2022-08-27T06:41:34.091Z,94480.13
2022-08-27T06:44:04.454Z,94495.69
2022-08-27T06:46:31.253Z,94493.94
2022-08-27T06:49:01.581Z,94494.94
2022-08-27T06:51:31.601Z,94465.97
2022-08-27T06:54:04.368Z,94472.84
2022-08-27T06:56:31.698Z,94473.91
2022-08-27T06:59:01.748Z,94472.22
2022-08-27T07:01:32.051Z,94452.06
2022-08-27T07:04:02.247Z,94462.31
2022-08-27T07:06:31.756Z,94470.16
2022-08-27T07:09:00.297Z,94478.97
2022-08-27T07:11:28.991Z,94466.28
2022-08-27T07:13:56.397Z,94468.16
2022-08-27T07:16:25.684Z,94466.56
2022-08-27T07:18:56.767Z,94466.88
2022-08-27T07:21:27.113Z,94455.94
2022-08-27T07:23:55.766Z,94489.13
2022-08-27T07:26:23.421Z,94483.34
2022-08-27T07:28:50.687Z,94496.44
2022-08-27T07:31:22.374Z,94481.84
2022-08-27T07:33:52.892Z,94484.34
2022-08-27T07:36:22.134Z,94498.22
2022-08-27T07:38:56.817Z,94471.16
2022-08-27T07:41:31.263Z,94499.41
2022-08-27T07:44:26.041Z,94495.50
2022-08-27T07:46:56.386Z,94503.59
2022-08-27T07:49:23.866Z,94502.38
2022-08-27T07:51:51.549Z,94516.78
2022-08-27T07:54:18.640Z,94510.94
2022-08-27T07:56:55.511Z,94504.75
2022-08-27T07:59:24.970Z,94507.53
2022-08-27T08:01:54.437Z,94503.81
2022-08-27T08:04:22.744Z,94513.63
2022-08-27T08:06:50.913Z,94516.84
2022-08-27T08:09:18.197Z,94506.97
2022-08-27T08:11:45.685Z,94515.78
2022-08-27T08:14:12.458Z,94494.81
2022-08-27T08:16:39.536Z,94509.06
2022-08-27T08:19:06.416Z,94508.50
2022-08-27T08:21:33.507Z,94517.16
2022-08-27T08:24:02.076Z,94536.19
2022-08-27T08:26:29.279Z,94518.34
2022-08-27T08:28:56.257Z,94535.03
2022-08-27T08:31:24.241Z,94515.13
2022-08-27T08:33:52.284Z,94526.00
2022-08-27T08:36:19.079Z,94532.88
2022-08-27T08:38:47.425Z,94506.91
2022-08-27T08:41:41.079Z,94516.81
2022-08-27T08:44:24.113Z,94542.63
2022-08-27T08:46:58.744Z,94529.13
2022-08-27T08:49:51.928Z,94536.31
2022-08-27T08:52:30.700Z,94516.47
2022-08-27T08:55:37.020Z,94538.66
2022-08-27T08:58:22.343Z,94515.13
2022-08-27T09:01:05.255Z,94527.44
2022-08-27T09:03:36.378Z,94525.03
2022-08-27T09:06:14.462Z,94520.44
2022-08-27T09:08:43.612Z,94507.63
2022-08-27T09:11:35.203Z,94516.06
2022-08-27T09:14:08.357Z,94512.28
2022-08-27T09:16:38.944Z,94515.50
2022-08-27T09:19:06.827Z,94514.66
2022-08-27T09:21:49.849Z,94499.50
2022-08-27T09:24:48.808Z,94498.81
2022-08-27T09:27:16.642Z,94523.34
2022-08-27T09:29:55.422Z,94536.88
2022-08-27T09:32:32.895Z,94537.50
2022-08-27T09:35:03.250Z,94516.53
2022-08-27T09:37:34.860Z,94471.47
2022-08-27T09:40:13.616Z,94533.91
2022-08-27T09:42:56.825Z,94503.34
2022-08-27T09:45:27.902Z,94497.22
2022-08-27T09:48:02.702Z,94483.66
2022-08-27T09:50:47.720Z,94496.56
2022-08-27T09:53:31.893Z,94467.16
2022-08-27T09:56:00.555Z,94502.16
2022-08-27T09:58:44.987Z,94495.81
2022-08-27T10:01:21.608Z,94476.97
2022-08-27T10:03:49.547Z,94502.13
2022-08-27T10:06:30.693Z,94489.31
2022-08-27T10:09:07.366Z,94499.19
2022-08-27T10:11:40.278Z,94499.91
2022-08-27T10:14:11.843Z,94496.88
2022-08-27T10:17:06.494Z,94480.34
2022-08-27T10:19:41.999Z,94492.41
2022-08-27T10:22:20.529Z,94503.19
2022-08-27T10:25:09.101Z,94490.63
2022-08-27T10:27:51.746Z,94481.41
2022-08-27T10:30:43.179Z,94488.19
2022-08-27T10:33:23.662Z,94474.28
2022-08-27T10:36:07.043Z,94494.72
2022-08-27T10:38:45.035Z,94500.13
2022-08-27T10:41:28.567Z,94492.97
2022-08-27T10:44:01.434Z,94490.72
2022-08-27T10:46:49.993Z,94494.59
2022-08-27T10:49:23.404Z,94495.63
2022-08-27T10:52:22.880Z,94481.63
2022-08-27T10:55:02.846Z,94477.47
2022-08-27T10:58:01.459Z,94490.06
2022-08-27T11:01:00.354Z,94479.59
2022-08-27T11:03:40.230Z,94478.06
2022-08-27T11:06:28.913Z,94470.34
2022-08-27T11:09:05.318Z,94479.50
2022-08-27T11:12:13.999Z,94469.97
2022-08-27T11:14:35.293Z,94456.38
2022-08-27T11:17:10.217Z,94476.09
2022-08-27T11:19:58.630Z,94475.31
2022-08-27T11:22:35.912Z,94443.03
2022-08-27T11:25:42.722Z,94462.38
2022-08-27T11:28:11.544Z,94483.97
2022-08-27T11:31:07.716Z,94457.63
2022-08-27T11:33:53.086Z,94464.97
2022-08-27T11:36:23.346Z,94469.06
2022-08-27T11:39:11.718Z,94481.44
2022-08-27T11:42:09.885Z,94444.06
2022-08-27T11:44:46.762Z,94432.28
2022-08-27T11:47:23.041Z,94462.31
2022-08-27T11:49:51.516Z,94466.50
2022-08-27T11:52:33.042Z,94468.03
2022-08-27T11:55:12.790Z,94442.97
2022-08-27T11:57:40.706Z,94454.50
2022-08-27T12:00:28.882Z,94441.72
2022-08-27T12:03:05.975Z,94445.13
2022-08-27T12:05:41.571Z,94432.66
2022-08-27T12:08:26.735Z,94435.34
2022-08-27T12:11:18.067Z,94432.53
2022-08-27T12:13:57.147Z,94463.19
2022-08-27T12:16:46.422Z,94440.78
2022-08-27T12:19:37.934Z,94418.25
2022-08-27T12:22:23.145Z,94404.25
2022-08-27T12:24:55.757Z,94416.47
2022-08-27T12:27:25.659Z,94425.88
2022-08-27T12:30:00.010Z,94410.84
2022-08-27T12:32:40.675Z,94430.66
2022-08-27T12:35:36.957Z,94416.50
2022-08-27T12:38:23.715Z,94413.03
2022-08-27T12:40:53.986Z,94402.09
2022-08-27T12:43:22.366Z,94408.03
2022-08-27T12:45:59.193Z,94380.34
2022-08-27T12:48:30.247Z,94377.13
2022-08-27T12:51:01.629Z,94385.72
2022-08-27T12:53:35.046Z,94415.19
2022-08-27T12:56:20.393Z,94405.47
2022-08-27T12:59:10.937Z,94381.91
2022-08-27T13:01:53.533Z,94416.81
2022-08-27T13:04:27.304Z,94423.47
2022-08-27T13:06:54.854Z,94387.03
2022-08-27T13:09:31.591Z,94366.47
2022-08-27T13:12:00.157Z,94406.97
2022-08-27T13:14:29.367Z,94385.38
2022-08-27T13:17:00.498Z,94388.81
2022-08-27T13:19:31.166Z,94392.72
2022-08-27T13:22:02.193Z,94396.81
2022-08-27T13:24:50.681Z,94400.56
2022-08-27T13:27:28.071Z,94387.78
2022-08-27T13:29:55.867Z,94395.31
2022-08-27T13:32:24.538Z,94399.38
2022-08-27T13:34:51.606Z,94419.59
2022-08-27T13:37:24.215Z,94388.81
2022-08-27T13:39:57.270Z,94397.84
2022-08-27T13:42:25.976Z,94392.56
2022-08-27T13:44:57.160Z,94378.25
2022-08-27T13:47:27.263Z,94379.03
2022-08-27T13:50:14.405Z,94370.84
2022-08-27T13:53:01.395Z,94403.16
2022-08-27T13:55:29.819Z,94398.53
2022-08-27T13:58:00.523Z,94390.44
2022-08-27T14:00:31.909Z,94399.75
2022-08-27T14:03:01.591Z,94403.56
2022-08-27T14:05:31.996Z,94402.31
2022-08-27T14:08:12.591Z,94399.34
2022-08-27T14:10:44.455Z,94365.88
2022-08-27T14:13:22.241Z,94398.88
2022-08-27T14:15:55.399Z,94386.13
2022-08-27T14:18:55.148Z,94380.91
2022-08-27T14:21:17.786Z,94386.84
2022-08-27T14:23:44.886Z,94359.56
2022-08-27T14:26:13.931Z,94377.28
2022-08-27T14:28:40.860Z,94386.84
2022-08-27T14:31:07.620Z,94384.03
2022-08-27T14:33:34.474Z,94389.78
2022-08-27T14:36:01.238Z,94375.09
2022-08-27T14:38:32.059Z,94379.69
2022-08-27T14:40:58.956Z,94345.94
2022-08-27T14:43:26.068Z,94370.47
2022-08-27T14:45:53.994Z,94374.78
2022-08-27T14:48:33.275Z,94368.81
2022-08-27T14:51:07.758Z,94345.50
2022-08-27T14:53:34.583Z,94357.25
2022-08-27T14:56:01.873Z,94353.00
2022-08-27T14:58:29.598Z,94375.56
2022-08-27T15:00:57.783Z,94367.16
2022-08-27T15:03:28.356Z,94375.31
2022-08-27T15:05:56.227Z,94361.34
2022-08-27T15:08:27.639Z,94368.41
2022-08-27T15:10:58.035Z,94365.09
2022-08-27T15:13:25.251Z,94354.63
2022-08-27T15:15:52.772Z,94354.38
2022-08-27T15:18:20.285Z,94373.84
2022-08-27T15:20:47.581Z,94334.63
2022-08-27T15:23:15.711Z,94347.66
2022-08-27T15:25:45.715Z,94333.94
2022-08-27T15:28:12.743Z,94358.56
2022-08-27T15:30:39.703Z,94368.09
2022-08-27T15:33:07.130Z,94361.59
2022-08-27T15:35:34.274Z,94362.91
2022-08-27T15:38:01.440Z,94357.53
2022-08-27T15:40:31.881Z,94367.53
2022-08-27T15:43:02.436Z,94378.34
2022-08-27T15:45:32.427Z,94390.97
2022-08-27T15:48:00.247Z,94381.50
2022-08-27T15:50:28.866Z,94361.72
2022-08-27T15:53:01.633Z,94372.78
2022-08-27T15:55:32.551Z,94386.00
2022-08-27T15:58:00.973Z,94387.34
2022-08-27T16:00:30.327Z,94379.19
2022-08-27T16:02:57.511Z,94378.63
2022-08-27T16:05:26.231Z,94371.53
2022-08-27T16:07:52.977Z,94370.66
2022-08-27T16:10:20.086Z,94372.78
2022-08-27T16:12:46.902Z,94370.28
2022-08-27T16:15:14.190Z,94331.34
2022-08-27T16:17:42.119Z,94327.84
2022-08-27T16:20:12.360Z,94346.78
2022-08-27T16:22:39.530Z,94355.94
2022-08-27T16:25:07.935Z,94354.16
2022-08-27T16:27:35.343Z,94332.47
2022-08-27T16:30:02.167Z,94357.72
2022-08-27T16:32:31.422Z,94348.03
2022-08-27T16:34:58.467Z,94349.16
2022-08-27T16:37:25.432Z,94343.66
2022-08-27T16:39:52.343Z,94343.28
2022-08-27T16:42:20.312Z,94349.22
2022-08-27T16:44:47.093Z,94336.13
2022-08-27T16:47:14.040Z,94347.50
2022-08-27T16:49:59.598Z,94353.78
2022-08-27T16:52:26.480Z,94371.03
2022-08-27T16:54:53.342Z,94374.78
2022-08-27T16:57:20.449Z,94373.84
2022-08-27T16:59:47.279Z,94374.09
2022-08-27T17:02:31.590Z,94371.78
2022-08-27T17:05:23.801Z,94379.56
2022-08-27T17:07:48.192Z,94375.91
2022-08-27T17:10:19.474Z,94381.69
2022-08-27T17:12:47.835Z,94384.00
2022-08-27T17:15:18.674Z,94383.22
2022-08-27T17:17:46.479Z,94383.38
2022-08-27T17:20:15.214Z,94381.78
2022-08-27T17:22:42.853Z,94382.16
2022-08-27T17:25:10.081Z,94381.09
2022-08-27T17:27:36.866Z,94383.28
2022-08-27T17:30:04.678Z,94379.34
2022-08-27T17:32:37.378Z,94379.69
2022-08-27T17:35:06.946Z,94379.56
2022-08-27T17:37:34.856Z,94375.22
2022-08-27T17:40:02.126Z,94378.06
2022-08-27T17:42:31.156Z,94384.63
2022-08-27T17:44:58.877Z,94372.38
2022-08-27T17:47:26.123Z,94378.84
2022-08-27T17:49:52.969Z,94388.06
2022-08-27T17:52:20.643Z,94395.88
2022-08-27T17:54:54.227Z,94370.00
2022-08-27T17:57:24.490Z,94412.44
2022-08-27T17:59:53.363Z,94414.69
2022-08-27T18:02:25.317Z,94418.56
2022-08-27T18:04:52.485Z,94433.78
2022-08-27T18:07:19.691Z,94444.44
2022-08-27T18:09:47.527Z,94447.19
2022-08-27T18:12:18.072Z,94453.63
2022-08-27T18:15:06.230Z,94469.72
2022-08-27T18:17:34.613Z,94468.94
2022-08-27T18:20:04.585Z,94473.25
2022-08-27T18:22:35.133Z,94483.50
2022-08-27T18:25:08.390Z,94508.50
2022-08-27T18:27:37.103Z,94504.78
2022-08-27T18:30:05.163Z,94503.03
2022-08-27T18:32:32.195Z,94495.63
2022-08-27T18:35:13.431Z,94509.81
2022-08-27T18:37:41.273Z,94521.34
2022-08-27T18:40:09.887Z,94518.34
2022-08-27T18:42:38.263Z,94519.34
2022-08-27T18:45:19.138Z,94515.22
2022-08-27T18:47:45.948Z,94517.47
2022-08-27T18:50:17.479Z,94521.44
2022-08-27T18:52:46.775Z,94542.56
2022-08-27T18:55:17.397Z,94531.63
2022-08-27T18:57:44.253Z,94536.00
2022-08-27T19:00:13.675Z,94532.41
2022-08-27T19:02:42.436Z,94542.25
2022-08-27T19:05:11.405Z,94538.59
2022-08-27T19:07:38.434Z,94546.41
2022-08-27T19:10:07.121Z,94533.59
2022-08-27T19:12:33.961Z,94534.66
2022-08-27T19:15:04.253Z,94541.09
2022-08-27T19:17:34.433Z,94532.47
2022-08-27T19:20:02.475Z,94505.41
2022-08-27T19:22:31.426Z,94551.25
2022-08-27T19:24:59.491Z,94556.19
2022-08-27T19:27:29.359Z,94547.09
2022-08-27T19:29:56.286Z,94508.13
2022-08-27T19:32:23.431Z,94568.72
2022-08-27T19:34:50.411Z,94550.94
2022-08-27T19:37:22.274Z,94551.53
2022-08-27T19:39:49.246Z,94524.16
2022-08-27T19:42:16.196Z,94561.97
2022-08-27T19:44:44.395Z,94558.63
2022-08-27T19:47:13.791Z,94545.09
2022-08-27T19:49:41.989Z,94550.75
2022-08-27T19:52:08.861Z,94543.22
2022-08-27T19:54:43.157Z,94531.50
2022-08-27T19:57:19.269Z,94527.66
2022-08-27T19:59:46.145Z,94511.41
2022-08-27T20:02:13.014Z,94531.78
2022-08-27T20:04:55.881Z,94529.41
2022-08-27T20:07:26.941Z,94523.22
2022-08-27T20:09:53.769Z,94551.59
2022-08-27T20:12:21.901Z,94537.94
2022-08-27T20:14:51.664Z,94521.00
2022-08-27T20:17:19.162Z,94535.66
2022-08-27T20:19:47.420Z,94545.66
2022-08-27T20:22:16.379Z,94549.00
2022-08-27T20:24:43.273Z,94532.41
2022-08-27T20:27:10.046Z,94545.22
2022-08-27T20:29:37.372Z,94539.53
2022-08-27T20:32:04.435Z,94541.53
2022-08-27T20:34:32.627Z,94540.13
2022-08-27T20:37:02.479Z,94533.22
2022-08-27T20:39:29.380Z,94539.75
2022-08-27T20:41:56.181Z,94539.91
2022-08-27T20:44:22.946Z,94543.84
2022-08-27T20:46:55.054Z,94570.44
2022-08-27T20:49:22.013Z,94529.78
2022-08-27T20:51:53.472Z,94546.69
2022-08-27T20:54:30.299Z,94570.09
2022-08-27T20:56:58.867Z,94556.25
2022-08-27T20:59:44.710Z,94570.56
2022-08-27T21:02:13.531Z,94543.22
2022-08-27T21:04:47.826Z,94570.44
2022-08-27T21:07:16.577Z,94587.34
2022-08-27T21:09:57.187Z,94565.47
2022-08-27T21:12:29.526Z,94570.03
2022-08-27T21:14:57.994Z,94577.63
2022-08-27T21:17:27.139Z,94575.44
2022-08-27T21:19:54.093Z,94577.09
2022-08-27T21:22:21.908Z,94582.38
2022-08-27T21:24:48.902Z,94573.66
2022-08-27T21:27:17.039Z,94570.63
2022-08-27T21:29:47.000Z,94587.47
2022-08-27T21:32:15.191Z,94583.41
2022-08-27T21:34:42.264Z,94593.13
2022-08-27T21:37:11.021Z,94591.78
2022-08-27T21:39:38.807Z,94597.97
2022-08-27T21:42:05.851Z,94603.69
2022-08-27T21:44:32.843Z,94574.06
2022-08-27T21:47:01.790Z,94610.72
2022-08-27T21:49:28.795Z,94589.41
2022-08-27T21:51:55.625Z,94586.16
2022-08-27T21:54:23.444Z,94593.97
2022-08-27T21:56:53.154Z,94601.28
2022-08-27T21:59:20.298Z,94598.78
2022-08-27T22:01:50.620Z,94596.97
2022-08-27T22:04:26.770Z,94613.09
2022-08-27T22:06:57.617Z,94609.97
2022-08-27T22:09:24.366Z,94609.41
2022-08-27T22:11:51.224Z,94599.06
2022-08-27T22:14:18.342Z,94592.97
2022-08-27T22:16:45.246Z,94603.91
2022-08-27T22:19:12.019Z,94599.28
2022-08-27T22:21:39.088Z,94608.91
2022-08-27T22:24:06.274Z,94594.31
2022-08-27T22:26:33.205Z,94584.69
2022-08-27T22:29:00.431Z,94583.63
2022-08-27T22:31:27.317Z,94588.03
2022-08-27T22:33:54.113Z,94602.59
2022-08-27T22:36:20.974Z,94607.34
2022-08-27T22:38:48.039Z,94604.16
2022-08-27T22:41:18.502Z,94604.44
2022-08-27T22:43:46.023Z,94604.34
2022-08-27T22:46:13.109Z,94594.88
2022-08-27T22:48:39.927Z,94571.03
2022-08-27T22:51:06.912Z,94566.72
2022-08-27T22:53:36.202Z,94594.31
2022-08-27T22:56:06.303Z,94580.47
2022-08-27T22:58:33.351Z,94585.91
2022-08-27T23:01:00.625Z,94588.91
2022-08-27T23:03:27.474Z,94589.69
2022-08-27T23:05:54.908Z,94544.84
2022-08-27T23:08:23.301Z,94592.78
2022-08-27T23:10:50.146Z,94587.88
2022-08-27T23:13:17.078Z,94594.72
2022-08-27T23:15:43.990Z,94601.13
2022-08-27T23:18:11.241Z,94599.63
2022-08-27T23:20:38.585Z,94589.88
2022-08-27T23:23:08.033Z,94597.28
2022-08-27T23:25:53.505Z,94601.06
2022-08-27T23:28:21.566Z,94581.38
2022-08-27T23:30:48.639Z,94580.59
2022-08-27T23:33:15.757Z,94608.03
2022-08-27T23:35:47.972Z,94600.06
2022-08-27T23:38:16.912Z,94610.72
2022-08-27T23:40:44.281Z,94591.78
2022-08-27T23:43:11.365Z,94571.66
2022-08-27T23:45:40.567Z,94599.03
2022-08-27T23:48:07.662Z,94597.47
2022-08-27T23:50:35.144Z,94581.03
2022-08-27T23:53:03.776Z,94586.19
2022-08-27T23:55:30.887Z,94585.22
2022-08-27T23:57:57.870Z,94586.41
